createdAt,value
2019-01-12T05:01:00.300Z,0.00
2019-01-12T05:02:00.164Z,0.00
2019-01-12T05:03:52.829Z,0.00
2019-01-12T05:04:52.726Z,0.00
2019-01-12T05:06:45.391Z,0.00
2019-01-12T05:07:45.351Z,0.00
2019-01-12T05:09:37.936Z,0.00
2019-01-12T05:10:37.812Z,0.00
2019-01-12T05:12:30.487Z,0.00
2019-01-12T05:13:30.363Z,0.00
2019-01-12T05:15:23.030Z,0.00
2019-01-12T05:16:22.913Z,0.00
2019-01-12T05:18:15.597Z,0.00
2019-01-12T05:19:15.460Z,0.00
2019-01-12T05:21:08.133Z,0.00
2019-01-12T05:22:08.016Z,0.00
2019-01-12T05:24:00.698Z,0.00
2019-01-12T05:25:00.560Z,0.00
2019-01-12T05:26:53.228Z,0.00
2019-01-12T05:27:53.112Z,0.00
2019-01-12T05:29:45.802Z,0.00
2019-01-12T05:30:45.695Z,0.00
2019-01-12T05:32:38.337Z,0.00
2019-01-12T05:33:38.216Z,0.00
2019-01-12T05:35:30.899Z,0.00
2019-01-12T05:36:30.767Z,0.00
2019-01-12T05:38:23.440Z,0.00
2019-01-12T05:39:23.324Z,0.00
2019-01-12T05:41:16.001Z,0.00
2019-01-12T05:42:15.874Z,0.00
2019-01-12T05:44:08.536Z,0.00
2019-01-12T05:45:08.426Z,0.00
2019-01-12T05:47:01.113Z,0.00
2019-01-12T05:48:00.977Z,0.00
2019-01-12T05:49:54.302Z,0.00
2019-01-12T05:50:53.518Z,0.00
2019-01-12T05:52:46.220Z,0.00
2019-01-12T05:53:46.082Z,0.00
2019-01-12T05:55:38.744Z,0.00
2019-01-12T05:56:38.629Z,0.00
2019-01-12T05:58:31.316Z,0.00
2019-01-12T05:59:31.187Z,0.00
2019-01-12T06:01:23.838Z,0.00
2019-01-12T06:02:23.735Z,0.00
2019-01-12T06:04:16.412Z,0.00
2019-01-12T06:05:16.274Z,0.00
2019-01-12T06:07:08.932Z,0.00
2019-01-12T06:08:08.823Z,0.00
2019-01-12T06:10:01.500Z,0.00
2019-01-12T06:11:01.372Z,0.00
2019-01-12T06:12:54.037Z,0.00
2019-01-12T06:13:53.914Z,0.00
2019-01-12T06:15:46.590Z,0.00
2019-01-12T06:16:46.467Z,0.00
2019-01-12T06:18:39.129Z,0.00
2019-01-12T06:19:39.014Z,0.00
2019-01-12T06:21:31.698Z,0.00
2019-01-12T06:22:31.579Z,0.00
2019-01-12T06:24:24.230Z,0.00
2019-01-12T06:25:24.127Z,0.00
2019-01-12T06:27:16.847Z,0.00
2019-01-12T06:28:16.716Z,0.00
2019-01-12T06:30:09.368Z,0.00
2019-01-12T06:31:09.253Z,0.00
2019-01-12T06:33:01.936Z,0.00
2019-01-12T06:34:01.801Z,0.00
2019-01-12T06:35:54.468Z,0.00
2019-01-12T06:36:54.346Z,0.00
2019-01-12T06:38:47.041Z,0.00
2019-01-12T06:39:46.897Z,0.00
2019-01-12T06:41:39.563Z,0.00
2019-01-12T06:42:39.455Z,0.00
2019-01-12T06:44:32.151Z,0.00
2019-01-12T06:45:32.011Z,0.00
2019-01-12T06:47:24.679Z,0.00
2019-01-12T06:48:24.552Z,0.00
2019-01-12T06:50:17.228Z,0.00
2019-01-12T06:51:17.102Z,0.00
2019-01-12T06:53:09.765Z,0.00
2019-01-12T06:54:09.653Z,0.00
2019-01-12T06:56:02.323Z,0.00
2019-01-12T06:57:02.199Z,0.00
2019-01-12T06:58:54.857Z,0.00
2019-01-12T06:59:54.750Z,0.00
2019-01-12T07:01:47.457Z,0.00
2019-01-12T07:02:47.314Z,0.00
2019-01-12T07:04:39.980Z,0.00
2019-01-12T07:05:39.862Z,4.00
2019-01-12T07:07:32.554Z,4.00
2019-01-12T07:08:32.413Z,4.00
2019-01-12T07:10:25.076Z,4.00
2019-01-12T07:11:24.960Z,4.00
2019-01-12T07:13:17.642Z,12.00
2019-01-12T07:14:17.508Z,12.00
2019-01-12T07:16:10.176Z,20.00
2019-01-12T07:17:10.059Z,20.00
2019-01-12T07:19:02.738Z,28.00
2019-01-12T07:20:02.609Z,28.00
2019-01-12T07:21:55.265Z,32.00
2019-01-12T07:22:55.162Z,40.00
2019-01-12T07:24:47.834Z,48.00
2019-01-12T07:25:47.701Z,56.00
2019-01-12T07:27:40.365Z,68.00
2019-01-12T07:28:40.246Z,64.00
2019-01-12T07:30:32.933Z,76.00
2019-01-12T07:31:32.801Z,88.00
2019-01-12T07:33:25.466Z,120.00
2019-01-12T07:34:25.343Z,136.00
2019-01-12T07:36:18.022Z,108.00
2019-01-12T07:37:17.891Z,148.00
2019-01-12T07:39:10.576Z,148.00
2019-01-12T07:40:10.453Z,168.00
2019-01-12T07:42:03.107Z,192.00
2019-01-12T07:43:02.996Z,220.00
2019-01-12T07:44:55.682Z,252.00
2019-01-12T07:45:55.540Z,264.00
2019-01-12T07:47:48.202Z,276.00
2019-01-12T07:48:48.089Z,216.00
2019-01-12T07:50:40.776Z,152.00
2019-01-12T07:51:40.645Z,144.00
2019-01-12T07:53:33.312Z,148.00
2019-01-12T07:54:33.195Z,152.00
2019-01-12T07:56:25.875Z,168.00
2019-01-12T07:57:25.745Z,176.00
2019-01-12T07:59:18.411Z,208.00
2019-01-12T08:00:18.304Z,208.00
2019-01-12T08:02:10.977Z,188.00
2019-01-12T08:03:10.844Z,180.00
2019-01-12T08:05:03.517Z,164.00
2019-01-12T08:06:03.401Z,172.00
2019-01-12T08:07:56.089Z,228.00
2019-01-12T08:08:55.948Z,264.00
2019-01-12T08:10:48.616Z,224.00
2019-01-12T08:11:48.495Z,240.00
2019-01-12T08:13:41.187Z,332.00
2019-01-12T08:14:41.066Z,428.00
2019-01-12T08:16:33.714Z,484.00
2019-01-12T08:17:33.593Z,436.00
2019-01-12T08:19:26.283Z,460.00
2019-01-12T08:20:26.150Z,508.00
2019-01-12T08:22:18.808Z,588.00
2019-01-12T08:23:18.695Z,612.00
2019-01-12T08:25:11.389Z,644.00
2019-01-12T08:26:11.254Z,684.00
2019-01-12T08:28:03.915Z,868.00
2019-01-12T08:29:03.804Z,872.00
2019-01-12T08:30:56.487Z,748.00
2019-01-12T08:31:56.370Z,824.00
2019-01-12T08:33:49.024Z,976.00
2019-01-12T08:34:48.915Z,796.00
2019-01-12T08:36:41.595Z,664.00
2019-01-12T08:37:41.469Z,664.00
2019-01-12T08:39:34.134Z,984.00
2019-01-12T08:40:34.020Z,836.00
2019-01-12T08:42:27.195Z,532.00
2019-01-12T08:43:26.568Z,764.00
2019-01-12T08:45:19.237Z,756.00
2019-01-12T08:46:19.112Z,684.00
2019-01-12T08:48:11.798Z,512.00
2019-01-12T08:49:11.656Z,572.00
2019-01-12T08:51:04.321Z,444.00
2019-01-12T08:52:04.211Z,516.00
2019-01-12T08:53:56.887Z,508.00
2019-01-12T08:54:56.761Z,636.00
2019-01-12T08:56:49.419Z,460.00
2019-01-12T08:57:49.309Z,520.00
2019-01-12T08:59:41.993Z,464.00
2019-01-12T09:00:41.851Z,596.00
2019-01-12T09:02:34.514Z,752.00
2019-01-12T09:03:34.399Z,764.00
2019-01-12T09:05:27.085Z,972.00
2019-01-12T09:06:26.941Z,1288.00
2019-01-12T09:08:19.610Z,1004.00
2019-01-12T09:09:19.504Z,944.00
2019-01-12T09:11:12.271Z,1172.00
2019-01-12T09:12:12.151Z,1348.00
2019-01-12T09:14:04.791Z,1048.00
2019-01-12T09:15:04.681Z,888.00
2019-01-12T09:16:57.357Z,992.00
2019-01-12T09:17:57.227Z,944.00
2019-01-12T09:19:49.900Z,856.00
2019-01-12T09:20:49.784Z,1048.00
2019-01-12T09:22:42.482Z,1180.00
2019-01-12T09:23:42.342Z,1472.00
2019-01-12T09:25:35.004Z,1304.00
2019-01-12T09:26:34.892Z,1668.00
2019-01-12T09:28:27.590Z,1288.00
2019-01-12T09:29:27.455Z,1424.00
2019-01-12T09:31:20.119Z,1492.00
2019-01-12T09:32:20.009Z,1424.00
2019-01-12T09:34:12.684Z,1304.00
2019-01-12T09:35:12.558Z,1464.00
2019-01-12T09:37:05.216Z,1552.00
2019-01-12T09:38:05.105Z,1572.00
2019-01-12T09:39:57.781Z,1204.00
2019-01-12T09:40:57.654Z,1276.00
2019-01-12T09:42:50.341Z,1084.00
2019-01-12T09:43:50.226Z,1152.00
2019-01-12T09:45:42.903Z,1140.00
2019-01-12T09:46:42.834Z,868.00
2019-01-12T09:48:35.479Z,804.00
2019-01-12T09:49:35.321Z,612.00
2019-01-12T09:51:28.001Z,684.00
2019-01-12T09:52:27.898Z,648.00
2019-01-12T09:54:20.533Z,680.00
2019-01-12T09:55:20.418Z,832.00
2019-01-12T09:57:13.098Z,776.00
2019-01-12T09:58:12.967Z,596.00
2019-01-12T10:00:05.625Z,672.00
2019-01-12T10:01:05.514Z,608.00
2019-01-12T10:02:58.199Z,700.00
2019-01-12T10:03:58.064Z,728.00
2019-01-12T10:05:50.723Z,1012.00
2019-01-12T10:06:50.608Z,960.00
2019-01-12T10:08:43.296Z,960.00
2019-01-12T10:09:43.165Z,952.00
2019-01-12T10:11:35.828Z,1328.00
2019-01-12T10:12:35.717Z,1244.00
2019-01-12T10:14:28.406Z,1508.00
2019-01-12T10:15:28.262Z,1424.00
2019-01-12T10:17:20.993Z,1324.00
2019-01-12T10:18:20.873Z,1192.00
2019-01-12T10:20:13.552Z,1296.00
2019-01-12T10:21:13.588Z,1536.00
2019-01-12T10:23:06.061Z,1804.00
2019-01-12T10:24:05.945Z,1844.00
2019-01-12T10:25:58.633Z,1508.00
2019-01-12T10:26:58.861Z,1592.00
2019-01-12T10:28:51.157Z,1188.00
2019-01-12T10:29:51.054Z,1360.00
2019-01-12T10:31:43.737Z,1384.00
2019-01-12T10:32:43.595Z,1448.00
2019-01-12T10:34:36.343Z,1828.00
2019-01-12T10:35:36.229Z,1696.00
2019-01-12T10:37:28.931Z,1356.00
2019-01-12T10:38:28.824Z,1540.00
2019-01-12T10:40:21.549Z,1144.00
2019-01-12T10:41:21.419Z,1480.00
2019-01-12T10:43:14.094Z,1136.00
2019-01-12T10:44:14.051Z,1000.00
2019-01-12T10:46:06.718Z,1196.00
2019-01-12T10:47:06.569Z,1244.00
2019-01-12T10:48:59.236Z,964.00
2019-01-12T10:49:59.096Z,1120.00
2019-01-12T10:51:51.763Z,1052.00
2019-01-12T10:52:51.654Z,964.00
2019-01-12T10:54:44.391Z,1080.00
2019-01-12T10:55:44.217Z,1180.00
2019-01-12T10:57:37.054Z,1448.00
2019-01-12T10:58:36.764Z,1452.00
2019-01-12T11:00:29.456Z,1448.00
2019-01-12T11:01:29.430Z,1752.00
2019-01-12T11:03:22.958Z,1556.00
2019-01-12T11:04:22.031Z,1620.00
2019-01-12T11:06:15.057Z,1388.00
2019-01-12T11:07:14.707Z,1520.00
2019-01-12T11:09:07.407Z,1492.00
2019-01-12T11:10:07.265Z,1232.00
2019-01-12T11:12:00.296Z,1320.00
2019-01-12T11:12:59.827Z,1604.00
2019-01-12T11:14:52.476Z,1676.00
2019-01-12T11:15:52.355Z,1580.00
2019-01-12T11:17:45.429Z,1864.00
2019-01-12T11:18:44.960Z,1448.00
2019-01-12T11:20:37.607Z,1580.00
2019-01-12T11:21:37.483Z,1620.00
2019-01-12T11:23:30.467Z,1720.00
2019-01-12T11:24:30.000Z,1860.00
2019-01-12T11:26:22.686Z,1776.00
2019-01-12T11:27:22.702Z,1640.00
2019-01-12T11:29:15.600Z,1256.00
2019-01-12T11:30:15.145Z,1416.00
2019-01-12T11:32:07.814Z,1532.00
2019-01-12T11:33:07.716Z,1780.00
2019-01-12T11:35:00.745Z,1380.00
2019-01-12T11:36:00.294Z,1328.00
2019-01-12T11:37:52.758Z,1172.00
2019-01-12T11:38:52.508Z,1408.00
2019-01-12T11:40:45.186Z,1216.00
2019-01-12T11:41:45.157Z,1104.00
2019-01-12T11:43:37.715Z,1216.00
2019-01-12T11:44:37.627Z,1284.00
2019-01-12T11:46:30.288Z,1288.00
2019-01-12T11:47:30.160Z,1228.00
2019-01-12T11:49:22.816Z,1852.00
2019-01-12T11:50:22.706Z,1316.00
2019-01-12T11:52:15.615Z,936.00
2019-01-12T11:53:15.310Z,1136.00
2019-01-12T11:55:07.954Z,1092.00
2019-01-12T11:56:07.860Z,868.00
2019-01-12T11:58:00.598Z,1256.00
2019-01-12T11:59:00.459Z,1124.00
2019-01-12T12:00:53.964Z,980.00
2019-01-12T12:01:53.266Z,1052.00
2019-01-12T12:03:46.481Z,996.00
2019-01-12T12:04:46.025Z,1248.00
2019-01-12T12:06:39.425Z,1992.00
2019-01-12T12:07:38.665Z,2284.00
2019-01-12T12:09:32.194Z,1804.00
2019-01-12T12:10:31.739Z,1848.00
2019-01-12T12:12:24.581Z,2164.00
2019-01-12T12:13:24.296Z,2100.00
2019-01-12T12:15:17.020Z,1408.00
2019-01-12T12:16:16.840Z,1096.00
2019-01-12T12:18:09.504Z,1428.00
2019-01-12T12:19:09.417Z,1544.00
2019-01-12T12:21:02.065Z,1952.00
2019-01-12T12:22:01.939Z,1520.00
2019-01-12T12:23:54.599Z,1180.00
2019-01-12T12:24:54.483Z,1280.00
2019-01-12T12:26:47.168Z,1964.00
2019-01-12T12:27:47.039Z,2012.00
2019-01-12T12:29:39.726Z,1672.00
2019-01-12T12:30:39.598Z,1372.00
2019-01-12T12:32:32.250Z,2584.00
2019-01-12T12:33:32.141Z,2616.00
2019-01-12T12:35:24.833Z,1376.00
2019-01-12T12:36:24.710Z,1224.00
2019-01-12T12:38:17.368Z,932.00
2019-01-12T12:39:17.258Z,796.00
2019-01-12T12:41:10.007Z,724.00
2019-01-12T12:42:09.894Z,984.00
2019-01-12T12:44:02.512Z,876.00
2019-01-12T12:45:02.401Z,1072.00
2019-01-12T12:46:55.080Z,1204.00
2019-01-12T12:47:54.953Z,740.00
2019-01-12T12:49:47.611Z,844.00
2019-01-12T12:50:47.493Z,1060.00
2019-01-12T12:52:40.174Z,912.00
2019-01-12T12:53:40.052Z,872.00
2019-01-12T12:55:32.708Z,1140.00
2019-01-12T12:56:32.603Z,1020.00
2019-01-12T12:58:25.322Z,1048.00
2019-01-12T12:59:25.198Z,1108.00
2019-01-12T13:01:17.861Z,1220.00
2019-01-12T13:02:17.745Z,1568.00
2019-01-12T13:04:10.435Z,1004.00
2019-01-12T13:05:10.301Z,864.00
2019-01-12T13:07:02.975Z,1216.00
2019-01-12T13:08:02.856Z,1200.00
2019-01-12T13:09:55.535Z,1448.00
2019-01-12T13:10:55.398Z,1104.00
2019-01-12T13:12:48.149Z,1828.00
2019-01-12T13:13:47.957Z,1740.00
2019-01-12T13:15:40.642Z,1680.00
2019-01-12T13:16:40.520Z,1436.00
2019-01-12T13:18:33.168Z,1780.00
2019-01-12T13:19:33.059Z,2136.00
2019-01-12T13:21:25.750Z,1388.00
2019-01-12T13:22:25.607Z,1252.00
2019-01-12T13:24:18.269Z,1056.00
2019-01-12T13:25:18.152Z,1160.00
2019-01-12T13:27:10.828Z,1188.00
2019-01-12T13:28:10.704Z,1016.00
2019-01-12T13:30:03.372Z,1044.00
2019-01-12T13:31:03.255Z,656.00
2019-01-12T13:32:55.943Z,1228.00
2019-01-12T13:33:55.817Z,1084.00
2019-01-12T13:35:48.488Z,1596.00
2019-01-12T13:36:48.372Z,1660.00
2019-01-12T13:38:41.070Z,2072.00
2019-01-12T13:39:40.941Z,2008.00
2019-01-12T13:41:33.604Z,1376.00
2019-01-12T13:42:33.489Z,1604.00
2019-01-12T13:44:26.169Z,1780.00
2019-01-12T13:45:26.062Z,1936.00
2019-01-12T13:47:20.875Z,1480.00
2019-01-12T13:48:18.600Z,1508.00
2019-01-12T13:50:11.266Z,1524.00
2019-01-12T13:51:11.154Z,1572.00
2019-01-12T13:53:03.806Z,1288.00
2019-01-12T13:54:03.703Z,1116.00
2019-01-12T13:55:56.374Z,1364.00
2019-01-12T13:56:56.248Z,1284.00
2019-01-12T13:58:48.919Z,1488.00
2019-01-12T13:59:48.899Z,1380.00
2019-01-12T14:01:41.509Z,948.00
2019-01-12T14:02:41.370Z,1024.00
2019-01-12T14:04:34.046Z,1080.00
2019-01-12T14:05:34.030Z,728.00
2019-01-12T14:07:26.695Z,704.00
2019-01-12T14:08:26.474Z,524.00
2019-01-12T14:10:19.223Z,748.00
2019-01-12T14:11:19.053Z,412.00
2019-01-12T14:13:11.783Z,424.00
2019-01-12T14:14:11.661Z,472.00
2019-01-12T14:16:04.423Z,612.00
2019-01-12T14:17:04.264Z,548.00
2019-01-12T14:18:57.014Z,724.00
2019-01-12T14:19:56.880Z,504.00
2019-01-12T14:21:49.728Z,488.00
2019-01-12T14:22:49.446Z,492.00
2019-01-12T14:24:42.079Z,532.00
2019-01-12T14:25:42.001Z,424.00
2019-01-12T14:27:34.743Z,384.00
2019-01-12T14:28:34.600Z,500.00
2019-01-12T14:30:28.922Z,372.00
2019-01-12T14:31:27.188Z,372.00
2019-01-12T14:33:19.925Z,312.00
2019-01-12T14:34:19.777Z,288.00
2019-01-12T14:36:12.613Z,340.00
2019-01-12T14:37:12.338Z,360.00
2019-01-12T14:39:05.192Z,304.00
2019-01-12T14:40:04.931Z,352.00
2019-01-12T14:41:57.593Z,388.00
2019-01-12T14:42:57.496Z,356.00
2019-01-12T14:44:50.261Z,536.00
2019-01-12T14:45:50.116Z,452.00
2019-01-12T14:47:42.960Z,328.00
2019-01-12T14:48:42.733Z,324.00
2019-01-12T14:50:35.435Z,372.00
2019-01-12T14:51:35.330Z,416.00
2019-01-12T14:53:28.040Z,484.00
2019-01-12T14:54:27.876Z,456.00
2019-01-12T14:56:20.655Z,348.00
2019-01-12T14:57:20.469Z,340.00
2019-01-12T14:59:13.175Z,348.00
2019-01-12T15:00:13.138Z,436.00
2019-01-12T15:02:05.815Z,380.00
2019-01-12T15:03:05.635Z,300.00
2019-01-12T15:04:58.368Z,448.00
2019-01-12T15:05:58.259Z,364.00
2019-01-12T15:07:51.069Z,336.00
2019-01-12T15:08:50.854Z,244.00
2019-01-12T15:10:43.482Z,208.00
2019-01-12T15:11:43.372Z,308.00
2019-01-12T15:13:36.133Z,400.00
2019-01-12T15:14:35.929Z,344.00
2019-01-12T15:16:29.302Z,328.00
2019-01-12T15:17:28.573Z,260.00
2019-01-12T15:19:21.376Z,372.00
2019-01-12T15:20:21.101Z,380.00
2019-01-12T15:22:14.703Z,288.00
2019-01-12T15:23:14.530Z,228.00
2019-01-12T15:25:07.208Z,184.00
2019-01-12T15:26:07.075Z,164.00
2019-01-12T15:27:59.796Z,120.00
2019-01-12T15:28:59.679Z,112.00
2019-01-12T15:30:52.394Z,104.00
2019-01-12T15:31:52.299Z,100.00
2019-01-12T15:33:45.589Z,108.00
2019-01-12T15:34:44.877Z,116.00
2019-01-12T15:36:37.607Z,124.00
2019-01-12T15:37:37.463Z,108.00
2019-01-12T15:39:30.786Z,116.00
2019-01-12T15:40:30.060Z,100.00
2019-01-12T15:42:22.688Z,100.00
2019-01-12T15:43:22.600Z,100.00
2019-01-12T15:45:15.313Z,88.00
2019-01-12T15:46:15.156Z,84.00
2019-01-12T15:48:07.872Z,72.00
2019-01-12T15:49:07.755Z,64.00
2019-01-12T15:51:00.494Z,60.00
2019-01-12T15:52:00.333Z,56.00
2019-01-12T15:53:52.996Z,48.00
2019-01-12T15:54:52.960Z,44.00
2019-01-12T15:56:46.254Z,36.00
2019-01-12T15:57:45.561Z,32.00
2019-01-12T15:59:40.292Z,28.00
2019-01-12T16:00:38.997Z,28.00
2019-01-12T16:02:31.879Z,24.00
2019-01-12T16:03:31.616Z,24.00
2019-01-12T16:05:24.261Z,28.00
2019-01-12T16:06:24.223Z,24.00
2019-01-12T16:08:16.950Z,24.00
2019-01-12T16:09:16.720Z,24.00
2019-01-12T16:11:09.444Z,20.00
2019-01-12T16:12:09.315Z,24.00
2019-01-12T16:14:02.057Z,24.00
2019-01-12T16:15:01.925Z,24.00
2019-01-12T16:16:54.620Z,20.00
2019-01-12T16:17:54.525Z,20.00
2019-01-12T16:19:47.205Z,20.00
2019-01-12T16:20:47.058Z,24.00
2019-01-12T16:22:39.896Z,24.00
2019-01-12T16:23:39.658Z,24.00
2019-01-12T16:25:32.583Z,24.00
2019-01-12T16:26:32.238Z,20.00
2019-01-12T16:28:25.779Z,20.00
2019-01-12T16:29:25.647Z,20.00
2019-01-12T16:31:18.381Z,20.00
2019-01-12T16:32:18.217Z,20.00
2019-01-12T16:34:10.962Z,20.00
2019-01-12T16:35:10.820Z,20.00
2019-01-12T16:37:03.518Z,20.00
2019-01-12T16:38:03.515Z,20.00
2019-01-12T16:39:56.452Z,20.00
2019-01-12T16:40:56.338Z,20.00
2019-01-12T16:42:48.897Z,20.00
2019-01-12T16:43:48.825Z,20.00
2019-01-12T16:45:43.177Z,20.00
2019-01-12T16:46:41.438Z,20.00
2019-01-12T16:48:34.283Z,20.00
2019-01-12T16:49:34.009Z,20.00
2019-01-12T16:51:26.715Z,20.00
2019-01-12T16:52:26.583Z,20.00
2019-01-12T16:54:19.959Z,24.00
2019-01-12T16:55:19.190Z,20.00
2019-01-12T16:57:13.030Z,24.00
2019-01-12T16:58:11.730Z,24.00
2019-01-12T17:00:04.418Z,24.00
2019-01-12T17:01:04.298Z,24.00
2019-01-12T17:02:57.086Z,20.00
2019-01-12T17:03:56.895Z,20.00
2019-01-12T17:05:49.590Z,20.00
2019-01-12T17:06:49.606Z,20.00
2019-01-12T17:08:42.139Z,24.00
2019-01-12T17:09:42.017Z,20.00
2019-01-12T17:11:34.874Z,20.00
2019-01-12T17:12:34.597Z,24.00
2019-01-12T17:14:27.273Z,24.00
2019-01-12T17:15:27.149Z,24.00
2019-01-12T17:17:20.064Z,24.00
2019-01-12T17:18:19.723Z,24.00
2019-01-12T17:20:12.439Z,24.00
2019-01-12T17:21:12.281Z,24.00
2019-01-12T17:23:05.895Z,24.00
2019-01-12T17:24:05.753Z,24.00
2019-01-12T17:25:58.587Z,20.00
2019-01-12T17:26:58.331Z,24.00
2019-01-12T17:28:51.095Z,24.00
2019-01-12T17:29:50.922Z,24.00
2019-01-12T17:31:43.629Z,24.00
2019-01-12T17:32:43.479Z,24.00
2019-01-12T17:34:36.131Z,24.00
2019-01-12T17:35:36.021Z,24.00
2019-01-12T17:37:28.707Z,24.00
2019-01-12T17:38:28.573Z,24.00
2019-01-12T17:40:21.229Z,24.00
2019-01-12T17:41:21.128Z,24.00
2019-01-12T17:43:13.827Z,24.00
2019-01-12T17:44:13.674Z,24.00
2019-01-12T17:46:06.334Z,24.00
2019-01-12T17:47:06.250Z,24.00
2019-01-12T17:48:58.915Z,24.00
2019-01-12T17:49:58.779Z,24.00
2019-01-12T17:51:51.463Z,24.00
2019-01-12T17:52:51.347Z,24.00
2019-01-12T17:54:44.052Z,24.00
2019-01-12T17:55:43.897Z,24.00
2019-01-12T17:57:36.562Z,24.00
2019-01-12T17:58:36.447Z,20.00
2019-01-12T18:00:29.129Z,20.00
2019-01-12T18:01:28.998Z,24.00
2019-01-12T18:03:21.663Z,20.00
2019-01-12T18:04:21.550Z,20.00
2019-01-12T18:06:14.230Z,20.00
2019-01-12T18:07:14.095Z,20.00
2019-01-12T18:09:06.766Z,24.00
2019-01-12T18:10:06.643Z,20.00
2019-01-12T18:11:59.321Z,20.00
2019-01-12T18:12:59.196Z,20.00
2019-01-12T18:14:51.864Z,20.00
2019-01-12T18:15:51.745Z,20.00
2019-01-12T18:17:44.433Z,20.00
2019-01-12T18:18:44.299Z,20.00
2019-01-12T18:20:36.958Z,20.00
2019-01-12T18:21:36.842Z,20.00
2019-01-12T18:23:29.524Z,20.00
2019-01-12T18:24:29.397Z,20.00
2019-01-12T18:26:22.064Z,20.00
2019-01-12T18:27:21.951Z,20.00
2019-01-12T18:29:14.628Z,20.00
2019-01-12T18:30:14.498Z,20.00
2019-01-12T18:32:07.280Z,20.00
2019-01-12T18:33:07.052Z,20.00
2019-01-12T18:34:59.757Z,20.00
2019-01-12T18:35:59.617Z,20.00
2019-01-12T18:37:52.480Z,20.00
2019-01-12T18:38:52.168Z,20.00
2019-01-12T18:40:44.851Z,20.00
2019-01-12T18:41:44.725Z,20.00
2019-01-12T18:43:37.388Z,20.00
2019-01-12T18:44:37.284Z,20.00
2019-01-12T18:46:29.953Z,20.00
2019-01-12T18:47:29.821Z,20.00
2019-01-12T18:49:22.485Z,20.00
2019-01-12T18:50:22.376Z,20.00
2019-01-12T18:52:15.054Z,20.00
2019-01-12T18:53:14.982Z,20.00
2019-01-12T18:55:07.621Z,20.00
2019-01-12T18:56:07.507Z,20.00
2019-01-12T18:58:00.193Z,20.00
2019-01-12T18:59:00.059Z,20.00
2019-01-12T19:00:52.724Z,20.00
2019-01-12T19:01:52.606Z,20.00
2019-01-12T19:03:45.289Z,20.00
2019-01-12T19:04:45.158Z,20.00
2019-01-12T19:06:37.819Z,20.00
2019-01-12T19:07:37.713Z,20.00
2019-01-12T19:09:30.396Z,20.00
2019-01-12T19:10:30.270Z,20.00
2019-01-12T19:12:22.926Z,20.00
2019-01-12T19:13:22.815Z,20.00
2019-01-12T19:15:15.492Z,20.00
2019-01-12T19:16:15.360Z,20.00
2019-01-12T19:18:08.024Z,20.00
2019-01-12T19:19:07.912Z,20.00
2019-01-12T19:21:00.591Z,20.00
2019-01-12T19:22:00.629Z,20.00
2019-01-12T19:23:53.151Z,20.00
2019-01-12T19:24:53.017Z,20.00
2019-01-12T19:26:45.684Z,20.00
2019-01-12T19:27:45.574Z,20.00
2019-01-12T19:29:38.253Z,20.00
2019-01-12T19:30:38.131Z,20.00
2019-01-12T19:32:30.784Z,20.00
2019-01-12T19:33:30.973Z,20.00
2019-01-12T19:35:23.353Z,20.00
2019-01-12T19:36:23.221Z,20.00
2019-01-12T19:38:15.885Z,20.00
2019-01-12T19:39:15.775Z,20.00
2019-01-12T19:41:08.454Z,20.00
2019-01-12T19:42:08.328Z,20.00
2019-01-12T19:44:00.990Z,20.00
2019-01-12T19:45:00.883Z,20.00
2019-01-12T19:46:53.555Z,20.00
2019-01-12T19:47:53.438Z,20.00
2019-01-12T19:49:46.094Z,20.00
2019-01-12T19:50:45.984Z,20.00
2019-01-12T19:52:38.662Z,20.00
2019-01-12T19:53:38.531Z,20.00
2019-01-12T19:55:31.201Z,20.00
2019-01-12T19:56:31.096Z,20.00
2019-01-12T19:58:23.775Z,20.00
2019-01-12T19:59:23.652Z,20.00
2019-01-12T20:01:16.314Z,20.00
2019-01-12T20:02:16.199Z,20.00
2019-01-12T20:04:09.380Z,20.00
2019-01-12T20:05:09.245Z,20.00
2019-01-12T20:07:01.910Z,20.00
2019-01-12T20:08:01.800Z,20.00
2019-01-12T20:09:54.478Z,20.00
2019-01-12T20:10:54.342Z,20.00
2019-01-12T20:12:47.010Z,24.00
2019-01-12T20:13:46.891Z,24.00
2019-01-12T20:15:39.578Z,20.00
2019-01-12T20:16:39.451Z,20.00
2019-01-12T20:18:32.106Z,20.00
2019-01-12T20:19:31.991Z,20.00
2019-01-12T20:21:24.675Z,20.00
2019-01-12T20:22:24.544Z,20.00
2019-01-12T20:24:17.202Z,20.00
2019-01-12T20:25:17.095Z,20.00
2019-01-12T20:27:09.781Z,20.00
2019-01-12T20:28:09.651Z,20.00
2019-01-12T20:30:02.317Z,20.00
2019-01-12T20:31:02.210Z,20.00
2019-01-12T20:32:55.004Z,24.00
2019-01-12T20:33:55.806Z,20.00
2019-01-12T20:35:47.541Z,20.00
2019-01-12T20:36:47.427Z,24.00
2019-01-12T20:38:40.105Z,20.00
2019-01-12T20:39:39.981Z,20.00
2019-01-12T20:41:32.633Z,20.00
2019-01-12T20:42:32.532Z,20.00
2019-01-12T20:44:25.207Z,20.00
2019-01-12T20:45:25.069Z,20.00
2019-01-12T20:47:17.730Z,24.00
2019-01-12T20:48:17.617Z,24.00
2019-01-12T20:50:10.324Z,20.00
2019-01-12T20:51:10.199Z,20.00
2019-01-12T20:53:02.862Z,20.00
2019-01-12T20:54:02.749Z,20.00
2019-01-12T20:55:55.427Z,24.00
2019-01-12T20:56:55.297Z,20.00
2019-01-12T20:58:47.963Z,24.00
2019-01-12T20:59:47.849Z,24.00
2019-01-12T21:01:40.545Z,24.00
2019-01-12T21:02:40.407Z,24.00
2019-01-12T21:04:33.064Z,24.00
2019-01-12T21:05:32.953Z,24.00
2019-01-12T21:07:25.628Z,24.00
2019-01-12T21:08:25.497Z,24.00
2019-01-12T21:10:18.308Z,24.00
2019-01-12T21:11:18.149Z,24.00
2019-01-12T21:13:10.827Z,24.00
2019-01-12T21:14:10.708Z,24.00
2019-01-12T21:16:03.393Z,24.00
2019-01-12T21:17:03.251Z,24.00
2019-01-12T21:18:55.921Z,24.00
2019-01-12T21:19:55.806Z,20.00
2019-01-12T21:21:48.486Z,24.00
2019-01-12T21:22:48.363Z,24.00
2019-01-12T21:24:41.024Z,20.00
2019-01-12T21:25:40.906Z,24.00
2019-01-12T21:27:33.586Z,20.00
2019-01-12T21:28:33.453Z,20.00
2019-01-12T21:30:26.117Z,20.00
2019-01-12T21:31:26.003Z,20.00
2019-01-12T21:33:18.694Z,20.00
2019-01-12T21:34:18.557Z,20.00
2019-01-12T21:36:11.214Z,20.00
2019-01-12T21:37:11.104Z,20.00
2019-01-12T21:39:03.783Z,20.00
2019-01-12T21:40:03.656Z,20.00
2019-01-12T21:41:56.321Z,20.00
2019-01-12T21:42:56.204Z,20.00
2019-01-12T21:44:48.896Z,20.00
2019-01-12T21:45:48.772Z,20.00
2019-01-12T21:47:41.452Z,20.00
2019-01-12T21:48:41.322Z,20.00
2019-01-12T21:50:34.010Z,20.00
2019-01-12T21:51:33.876Z,20.00
2019-01-12T21:53:26.605Z,20.00
2019-01-12T21:54:26.536Z,20.00
2019-01-12T21:56:19.188Z,20.00
2019-01-12T21:57:19.035Z,20.00
2019-01-12T21:59:11.736Z,20.00
2019-01-12T22:00:11.618Z,24.00
2019-01-12T22:02:04.310Z,20.00
2019-01-12T22:03:04.155Z,20.00
2019-01-12T22:04:56.832Z,20.00
2019-01-12T22:05:56.713Z,24.00
2019-01-12T22:07:49.416Z,20.00
2019-01-12T22:08:49.270Z,20.00
2019-01-12T22:10:41.931Z,24.00
2019-01-12T22:11:41.822Z,24.00
2019-01-12T22:13:34.503Z,20.00
2019-01-12T22:14:34.373Z,20.00
2019-01-12T22:16:27.037Z,20.00
2019-01-12T22:17:26.919Z,20.00
2019-01-12T22:19:20.104Z,20.00
2019-01-12T22:20:19.969Z,20.00
2019-01-12T22:22:12.637Z,20.00
2019-01-12T22:23:12.517Z,20.00
2019-01-12T22:25:05.192Z,20.00
2019-01-12T22:26:05.068Z,20.00
2019-01-12T22:27:57.723Z,20.00
2019-01-12T22:28:57.614Z,20.00
2019-01-12T22:30:50.290Z,20.00
2019-01-12T22:31:50.162Z,20.00
2019-01-12T22:33:42.825Z,20.00
2019-01-12T22:34:42.713Z,20.00
2019-01-12T22:36:35.390Z,20.00
2019-01-12T22:37:35.265Z,20.00
2019-01-12T22:39:27.938Z,20.00
2019-01-12T22:40:27.816Z,20.00
2019-01-12T22:42:20.497Z,20.00
2019-01-12T22:43:20.362Z,20.00
2019-01-12T22:45:13.058Z,20.00
2019-01-12T22:46:12.911Z,20.00
2019-01-12T22:48:05.571Z,20.00
2019-01-12T22:49:06.275Z,20.00
2019-01-12T22:50:58.139Z,20.00
2019-01-12T22:51:58.016Z,20.00
2019-01-12T22:53:50.676Z,20.00
2019-01-12T22:54:50.566Z,20.00
2019-01-12T22:56:43.254Z,20.00
2019-01-12T22:57:43.130Z,20.00
2019-01-12T22:59:35.774Z,20.00
